Virtuoso — YM8996 — position and weather

sailwx.info

Track history (hours):
 
Tides and Currents Weather Stations Pressure Air Temp Water Temp Dewpoint Dewpoint Depression Visibility Wind Speed Wind Dir Waves Ship Positions

Virtuoso

Last reported at 2017-Aug-17 09:16 UTC. Time now 2017-Oct-22 23:07 UTC.
Position N 36°59' E 025°17'.
Warning: this ship's position is months out of date.

Length 27 m.

Type: Pleasure craft. MMSI: 271041860.

Date/timePositionNaut miles runAvg speedWind from/ knotsBaromVisibWave heightAir tempDewpointWater temp
2017-Aug-17 09:16N 36°59' E 025°17'3 9.8
2017-Aug-17 09:00N 37°02' E 025°17'5 9.8
2017-Aug-17 08:30N 37°07' E 025°18'4 7.9
2017-Aug-17 08:00N 37°11' E 025°17'2 4.0
2017-Aug-17 07:30N 37°09' E 025°15'1 2.2
2017-Aug-17 07:00N 37°08' E 025°14'0 0.0
2017-Aug-17 06:30N 37°08' E 025°14'0 0.0
2017-Aug-17 06:00N 37°08' E 025°14'0 0.0
2017-Aug-17 05:29N 37°08' E 025°14'0 0.0
2017-Aug-17 04:56N 37°08' E 025°14'0 0.0
2017-Aug-17 04:29N 37°08' E 025°14'0 0.0
2017-Aug-17 03:59N 37°08' E 025°14'0 0.0
2017-Aug-17 03:29N 37°08' E 025°14'0 0.0
2017-Aug-17 02:56N 37°08' E 025°14'0 0.0
2017-Aug-17 02:23N 37°08' E 025°14'0 0.0
2017-Aug-17 01:56N 37°08' E 025°14'0 0.0
2017-Aug-17 01:29N 37°08' E 025°14'0 0.0
2017-Aug-17 00:59N 37°08' E 025°14'0 0.0
2017-Aug-17 00:29N 37°08' E 025°14'0 0.0
2017-Aug-16 23:38N 37°08' E 025°14'0 0.0
2017-Aug-16 23:23N 37°08' E 025°14'0 0.0
2017-Aug-16 22:50N 37°08' E 025°14'0 0.0
2017-Aug-16 22:29N 37°08' E 025°14'0 0.0
2017-Aug-16 21:59N 37°08' E 025°14'0 0.0
2017-Aug-16 21:29N 37°08' E 025°14'0 0.0
2017-Aug-16 20:59N 37°08' E 025°14'0 0.0
2017-Aug-16 19:32N 37°08' E 025°14'0 0.0
2017-Aug-16 19:11N 37°08' E 025°14'0 0.0
2017-Aug-16 18:59N 37°08' E 025°14'0 0.0
2017-Aug-16 16:04N 37°08' E 025°14'0 0.0
2017-Aug-16 15:55N 37°08' E 025°14'0 0.0
2017-Aug-16 12:08N 37°08' E 025°14'0 0.0
2017-Aug-16 10:37N 37°08' E 025°14'0 0.0
2017-Aug-16 10:25N 37°08' E 025°14'0 0.0
2017-Aug-16 10:00N 37°08' E 025°14'0 0.0
2017-Aug-16 09:30N 37°08' E 025°14'0 0.0
2017-Aug-16 08:52N 37°08' E 025°14'0 0.0
2017-Aug-16 08:22N 37°08' E 025°14'0 0.0
2017-Aug-16 08:01N 37°08' E 025°14'0 0.0
2017-Aug-16 07:22N 37°08' E 025°14'0 0.0
2017-Aug-16 06:52N 37°08' E 025°14'0 0.0
2017-Aug-16 06:30N 37°08' E 025°14'0 0.0
2017-Aug-16 05:57N 37°08' E 025°14'0 0.0
2017-Aug-16 05:30N 37°08' E 025°14'0 0.0
2017-Aug-16 05:00N 37°08' E 025°14'0 0.0
2017-Aug-16 04:15N 37°08' E 025°14'0 0.0
2017-Aug-16 04:00N 37°08' E 025°14'0 0.0
2017-Aug-16 03:30N 37°08' E 025°14'0 0.0
2017-Aug-16 03:00N 37°08' E 025°14'0 0.0
2017-Aug-16 02:27N 37°08' E 025°14'0 0.0
2017-Aug-16 01:57N 37°08' E 025°14'0 0.0
2017-Aug-16 01:30N 37°08' E 025°14'0 0.0
2017-Aug-16 00:54N 37°08' E 025°14'0 0.0
2017-Aug-16 00:27N 37°08' E 025°14'0 0.0
2017-Aug-16 00:00N 37°08' E 025°14'0 0.0
2017-Aug-15 23:30N 37°08' E 025°14'0 0.0
2017-Aug-15 22:57N 37°08' E 025°14'0 0.0
2017-Aug-15 22:30N 37°08' E 025°14'0 0.0
2017-Aug-15 21:57N 37°08' E 025°14'0 0.0
2017-Aug-15 21:27N 37°08' E 025°14'0 0.0
2017-Aug-15 21:00N 37°08' E 025°14'0 0.0
2017-Aug-15 20:30N 37°08' E 025°14'0 0.0
2017-Aug-15 20:00N 37°08' E 025°14'0 0.0
2017-Aug-15 19:30N 37°08' E 025°14'0 0.0
2017-Aug-15 18:57N 37°08' E 025°14'0 0.0
2017-Aug-15 18:27N 37°08' E 025°14'0 0.0
2017-Aug-15 18:00N 37°08' E 025°14'0 0.0
2017-Aug-15 17:27N 37°08' E 025°14'0 0.0
2017-Aug-15 16:58N 37°08' E 025°14'0 0.0
2017-Aug-15 16:26N 37°08' E 025°14'0 0.0
2017-Aug-15 15:58N 37°08' E 025°14'0 0.0
2017-Aug-15 15:24N 37°08' E 025°14'0 0.0
2017-Aug-15 14:55N 37°08' E 025°14'2 4.1
2017-Aug-15 14:30N 37°10' E 025°14'15 0.7
2017-Aug-14 17:16N 37°24' E 025°06'2 8.1
2017-Aug-14 17:00N 37°23' E 025°09'4 7.8
2017-Aug-14 16:31N 37°22' E 025°13'5 9.3
2017-Aug-14 16:00N 37°22' E 025°19'1 1.8
2017-Aug-14 15:30N 37°23' E 025°20'1 1.6
2017-Aug-14 15:00N 37°24' E 025°20'0 0.8
2017-Aug-14 14:30N 37°24' E 025°20'0 0.3
2017-Aug-14 13:59N 37°25' E 025°20'0 0.0
2017-Aug-14 13:26N 37°25' E 025°20'0 0.0
2017-Aug-14 12:50N 37°25' E 025°20'0 0.0
2017-Aug-14 12:23N 37°25' E 025°20'0 0.0
2017-Aug-14 11:59N 37°25' E 025°20'0 0.0
2017-Aug-14 11:26N 37°25' E 025°20'0 0.0
2017-Aug-14 10:53N 37°25' E 025°20'0 0.0
2017-Aug-14 10:29N 37°25' E 025°20'0 0.0
2017-Aug-14 09:47N 37°25' E 025°20'0 0.0
2017-Aug-14 09:29N 37°25' E 025°20'0 0.0
2017-Aug-14 08:56N 37°25' E 025°20'0 0.0
2017-Aug-14 08:26N 37°25' E 025°20'0 0.0
2017-Aug-14 07:59N 37°25' E 025°20'0 0.0
2017-Aug-14 07:29N 37°25' E 025°20'0 0.0
2017-Aug-14 06:53N 37°25' E 025°20'0 0.0
2017-Aug-14 06:17N 37°25' E 025°20'0 0.0
2017-Aug-14 05:47N 37°25' E 025°20'0 0.0
2017-Aug-14 05:26N 37°25' E 025°20'0 0.0
2017-Aug-14 04:50N 37°25' E 025°20'0 0.0
2017-Aug-14 04:29N 37°25' E 025°20'0 0.0
2017-Aug-14 03:56N 37°25' E 025°20'0 0.0
2017-Aug-14 03:29N 37°25' E 025°20'0 0.0
2017-Aug-14 02:56N 37°25' E 025°20'0 0.0
2017-Aug-14 02:26N 37°25' E 025°20'0 0.0
2017-Aug-14 01:59N 37°25' E 025°20'0 0.0
2017-Aug-14 01:29N 37°25' E 025°20'0 0.0
2017-Aug-14 00:59N 37°25' E 025°20'0 0.0
2017-Aug-14 00:23N 37°25' E 025°20'0 0.0
2017-Aug-13 23:26N 37°25' E 025°20'0 0.0
2017-Aug-13 22:50N 37°25' E 025°20'0 0.0
2017-Aug-13 22:26N 37°25' E 025°20'0 0.0
2017-Aug-13 21:59N 37°25' E 025°20'0 0.0
2017-Aug-13 21:20N 37°25' E 025°20'0 0.0
2017-Aug-13 20:59N 37°25' E 025°20'0 0.0
2017-Aug-13 20:23N 37°25' E 025°20'0 0.0
2017-Aug-13 19:53N 37°25' E 025°20'0 0.0
2017-Aug-13 19:23N 37°25' E 025°20'0 0.0
2017-Aug-13 18:56N 37°25' E 025°20'0 0.0
2017-Aug-13 18:08N 37°25' E 025°20'0 0.0
2017-Aug-13 17:56N 37°25' E 025°20'0 0.0
2017-Aug-13 17:29N 37°25' E 025°20'0 0.0
2017-Aug-13 16:23N 37°25' E 025°20'0 0.0
2017-Aug-13 15:56N 37°25' E 025°20'0 0.2
2017-Aug-13 15:29N 37°24' E 025°20'0 0.5
2017-Aug-13 14:59N 37°25' E 025°20'3 5.8
2017-Aug-13 14:30N 37°23' E 025°18'2 3.9
2017-Aug-13 13:58N 37°24' E 025°16'0 0.1
2017-Aug-13 13:28N 37°24' E 025°16'0 0.0
2017-Aug-13 12:58N 37°24' E 025°16'0 0.0
2017-Aug-13 12:22N 37°24' E 025°16'0 0.0
2017-Aug-13 11:58N 37°24' E 025°16'0 0.0
2017-Aug-13 11:28N 37°24' E 025°16'0 0.0
2017-Aug-13 10:58N 37°24' E 025°16'0 0.0
2017-Aug-13 10:22N 37°24' E 025°16'0 0.0
2017-Aug-13 09:58N 37°24' E 025°16'0 0.0
2017-Aug-13 09:22N 37°24' E 025°16'0 0.0
2017-Aug-13 08:58N 37°24' E 025°16'0 0.0
2017-Aug-13 08:25N 37°24' E 025°16'0 0.0
2017-Aug-13 07:58N 37°24' E 025°16'0 0.0
2017-Aug-13 07:25N 37°24' E 025°16'0 0.0
2017-Aug-13 06:55N 37°24' E 025°16'0 0.1
2017-Aug-13 05:43N 37°24' E 025°16'2 6.7
2017-Aug-13 05:28N 37°22' E 025°16'3 7.6
2017-Aug-13 05:00N 37°24' E 025°20'1 0.1
2017-Aug-12 20:27N 37°25' E 025°20'0 0.0
2017-Aug-12 19:57N 37°25' E 025°20'0 0.0
2017-Aug-12 19:24N 37°25' E 025°20'0 0.0
2017-Aug-12 18:57N 37°25' E 025°20'0 0.0
2017-Aug-12 18:30N 37°25' E 025°20'0 0.0
2017-Aug-12 17:48N 37°25' E 025°20'0 0.0
2017-Aug-12 17:24N 37°25' E 025°20'0 0.0
2017-Aug-12 17:00N 37°25' E 025°20'0 0.0
2017-Aug-12 16:30N 37°25' E 025°20'0 0.0
2017-Aug-12 16:00N 37°25' E 025°20'0 0.0
2017-Aug-12 15:30N 37°25' E 025°20'0 0.0
2017-Aug-12 15:00N 37°25' E 025°20'0 0.1
2017-Aug-12 14:30N 37°25' E 025°20'0 0.2
2017-Aug-12 13:58N 37°25' E 025°20'0 0.0
2017-Aug-12 13:28N 37°25' E 025°20'0 0.0
2017-Aug-12 12:55N 37°25' E 025°20'0 0.0
2017-Aug-12 12:28N 37°25' E 025°20'0 0.0
2017-Aug-12 11:58N 37°25' E 025°20'0 0.0
2017-Aug-12 11:28N 37°25' E 025°20'0 0.0
2017-Aug-12 10:58N 37°25' E 025°20'0 0.0
2017-Aug-12 10:28N 37°25' E 025°20'0 0.0
2017-Aug-12 09:58N 37°25' E 025°20'0 0.0
2017-Aug-12 09:25N 37°25' E 025°20'0 0.0
2017-Aug-12 08:58N 37°25' E 025°20'0 0.0
2017-Aug-12 08:11N 37°25' E 025°20'0 0.0
2017-Aug-12 07:56N 37°25' E 025°20'0 0.0
2017-Aug-12 07:27N 37°25' E 025°20'0 0.5
2017-Aug-12 07:00N 37°25' E 025°20'1 1.4
2017-Aug-12 06:28N 37°24' E 025°21'0 0.1
2017-Aug-12 05:59N 37°24' E 025°21'3 7.0
2017-Aug-12 05:29N 37°25' E 025°26'4 8.8
2017-Aug-12 05:00N 37°28' E 025°30'19 7.8
2017-Aug-12 02:37N 37°27' E 025°53'  
Track history (hours):
 
Tides and Currents Weather Stations Pressure Air Temp Water Temp Dewpoint Dewpoint Depression Visibility Wind Speed Wind Dir Waves Ship Positions

Virtuoso

Last reported at 2017-Aug-17 09:16 UTC. Time now 2017-Oct-22 23:07 UTC.
Position N 36°59' E 025°17'.
Warning: this ship's position is months out of date.

Length 27 m.

Type: Pleasure craft. MMSI: 271041860.

Date/timePositionNaut miles runAvg speedWind from/ knotsBaromVisibWave heightAir tempDewpointWater temp
2017-Aug-17 09:16N 36°59' E 025°17'3 9.8
2017-Aug-17 09:00N 37°02' E 025°17'5 9.8
2017-Aug-17 08:30N 37°07' E 025°18'4 7.9
2017-Aug-17 08:00N 37°11' E 025°17'2 4.0
2017-Aug-17 07:30N 37°09' E 025°15'1 2.2
2017-Aug-17 07:00N 37°08' E 025°14'0 0.0
2017-Aug-17 06:30N 37°08' E 025°14'0 0.0
2017-Aug-17 06:00N 37°08' E 025°14'0 0.0
2017-Aug-17 05:29N 37°08' E 025°14'0 0.0
2017-Aug-17 04:56N 37°08' E 025°14'0 0.0
2017-Aug-17 04:29N 37°08' E 025°14'0 0.0
2017-Aug-17 03:59N 37°08' E 025°14'0 0.0
2017-Aug-17 03:29N 37°08' E 025°14'0 0.0
2017-Aug-17 02:56N 37°08' E 025°14'0 0.0
2017-Aug-17 02:23N 37°08' E 025°14'0 0.0
2017-Aug-17 01:56N 37°08' E 025°14'0 0.0
2017-Aug-17 01:29N 37°08' E 025°14'0 0.0
2017-Aug-17 00:59N 37°08' E 025°14'0 0.0
2017-Aug-17 00:29N 37°08' E 025°14'0 0.0
2017-Aug-16 23:38N 37°08' E 025°14'0 0.0
2017-Aug-16 23:23N 37°08' E 025°14'0 0.0
2017-Aug-16 22:50N 37°08' E 025°14'0 0.0
2017-Aug-16 22:29N 37°08' E 025°14'0 0.0
2017-Aug-16 21:59N 37°08' E 025°14'0 0.0
2017-Aug-16 21:29N 37°08' E 025°14'0 0.0
2017-Aug-16 20:59N 37°08' E 025°14'0 0.0
2017-Aug-16 19:32N 37°08' E 025°14'0 0.0
2017-Aug-16 19:11N 37°08' E 025°14'0 0.0
2017-Aug-16 18:59N 37°08' E 025°14'0 0.0
2017-Aug-16 16:04N 37°08' E 025°14'0 0.0
2017-Aug-16 15:55N 37°08' E 025°14'0 0.0
2017-Aug-16 12:08N 37°08' E 025°14'0 0.0
2017-Aug-16 10:37N 37°08' E 025°14'0 0.0
2017-Aug-16 10:25N 37°08' E 025°14'0 0.0
2017-Aug-16 10:00N 37°08' E 025°14'0 0.0
2017-Aug-16 09:30N 37°08' E 025°14'0 0.0
2017-Aug-16 08:52N 37°08' E 025°14'0 0.0
2017-Aug-16 08:22N 37°08' E 025°14'0 0.0
2017-Aug-16 08:01N 37°08' E 025°14'0 0.0
2017-Aug-16 07:22N 37°08' E 025°14'0 0.0
2017-Aug-16 06:52N 37°08' E 025°14'0 0.0
2017-Aug-16 06:30N 37°08' E 025°14'0 0.0
2017-Aug-16 05:57N 37°08' E 025°14'0 0.0
2017-Aug-16 05:30N 37°08' E 025°14'0 0.0
2017-Aug-16 05:00N 37°08' E 025°14'0 0.0
2017-Aug-16 04:15N 37°08' E 025°14'0 0.0
2017-Aug-16 04:00N 37°08' E 025°14'0 0.0
2017-Aug-16 03:30N 37°08' E 025°14'0 0.0
2017-Aug-16 03:00N 37°08' E 025°14'0 0.0
2017-Aug-16 02:27N 37°08' E 025°14'0 0.0
2017-Aug-16 01:57N 37°08' E 025°14'0 0.0
2017-Aug-16 01:30N 37°08' E 025°14'0 0.0
2017-Aug-16 00:54N 37°08' E 025°14'0 0.0
2017-Aug-16 00:27N 37°08' E 025°14'0 0.0
2017-Aug-16 00:00N 37°08' E 025°14'0 0.0
2017-Aug-15 23:30N 37°08' E 025°14'0 0.0
2017-Aug-15 22:57N 37°08' E 025°14'0 0.0
2017-Aug-15 22:30N 37°08' E 025°14'0 0.0
2017-Aug-15 21:57N 37°08' E 025°14'0 0.0
2017-Aug-15 21:27N 37°08' E 025°14'0 0.0
2017-Aug-15 21:00N 37°08' E 025°14'0 0.0
2017-Aug-15 20:30N 37°08' E 025°14'0 0.0
2017-Aug-15 20:00N 37°08' E 025°14'0 0.0
2017-Aug-15 19:30N 37°08' E 025°14'0 0.0
2017-Aug-15 18:57N 37°08' E 025°14'0 0.0
2017-Aug-15 18:27N 37°08' E 025°14'0 0.0
2017-Aug-15 18:00N 37°08' E 025°14'0 0.0
2017-Aug-15 17:27N 37°08' E 025°14'0 0.0
2017-Aug-15 16:58N 37°08' E 025°14'0 0.0
2017-Aug-15 16:26N 37°08' E 025°14'0 0.0
2017-Aug-15 15:58N 37°08' E 025°14'0 0.0
2017-Aug-15 15:24N 37°08' E 025°14'0 0.0
2017-Aug-15 14:55N 37°08' E 025°14'2 4.1
2017-Aug-15 14:30N 37°10' E 025°14'15 0.7
2017-Aug-14 17:16N 37°24' E 025°06'2 8.1
2017-Aug-14 17:00N 37°23' E 025°09'4 7.8
2017-Aug-14 16:31N 37°22' E 025°13'5 9.3
2017-Aug-14 16:00N 37°22' E 025°19'1 1.8
2017-Aug-14 15:30N 37°23' E 025°20'1 1.6
2017-Aug-14 15:00N 37°24' E 025°20'0 0.8
2017-Aug-14 14:30N 37°24' E 025°20'0 0.3
2017-Aug-14 13:59N 37°25' E 025°20'0 0.0
2017-Aug-14 13:26N 37°25' E 025°20'0 0.0
2017-Aug-14 12:50N 37°25' E 025°20'0 0.0
2017-Aug-14 12:23N 37°25' E 025°20'0 0.0
2017-Aug-14 11:59N 37°25' E 025°20'0 0.0
2017-Aug-14 11:26N 37°25' E 025°20'0 0.0
2017-Aug-14 10:53N 37°25' E 025°20'0 0.0
2017-Aug-14 10:29N 37°25' E 025°20'0 0.0
2017-Aug-14 09:47N 37°25' E 025°20'0 0.0
2017-Aug-14 09:29N 37°25' E 025°20'0 0.0
2017-Aug-14 08:56N 37°25' E 025°20'0 0.0
2017-Aug-14 08:26N 37°25' E 025°20'0 0.0
2017-Aug-14 07:59N 37°25' E 025°20'0 0.0
2017-Aug-14 07:29N 37°25' E 025°20'0 0.0
2017-Aug-14 06:53N 37°25' E 025°20'0 0.0
2017-Aug-14 06:17N 37°25' E 025°20'0 0.0
2017-Aug-14 05:47N 37°25' E 025°20'0 0.0
2017-Aug-14 05:26N 37°25' E 025°20'0 0.0
2017-Aug-14 04:50N 37°25' E 025°20'0 0.0
2017-Aug-14 04:29N 37°25' E 025°20'0 0.0
2017-Aug-14 03:56N 37°25' E 025°20'0 0.0
2017-Aug-14 03:29N 37°25' E 025°20'0 0.0
2017-Aug-14 02:56N 37°25' E 025°20'0 0.0
2017-Aug-14 02:26N 37°25' E 025°20'0 0.0
2017-Aug-14 01:59N 37°25' E 025°20'0 0.0
2017-Aug-14 01:29N 37°25' E 025°20'0 0.0
2017-Aug-14 00:59N 37°25' E 025°20'0 0.0
2017-Aug-14 00:23N 37°25' E 025°20'0 0.0
2017-Aug-13 23:26N 37°25' E 025°20'0 0.0
2017-Aug-13 22:50N 37°25' E 025°20'0 0.0
2017-Aug-13 22:26N 37°25' E 025°20'0 0.0
2017-Aug-13 21:59N 37°25' E 025°20'0 0.0
2017-Aug-13 21:20N 37°25' E 025°20'0 0.0
2017-Aug-13 20:59N 37°25' E 025°20'0 0.0
2017-Aug-13 20:23N 37°25' E 025°20'0 0.0
2017-Aug-13 19:53N 37°25' E 025°20'0 0.0
2017-Aug-13 19:23N 37°25' E 025°20'0 0.0
2017-Aug-13 18:56N 37°25' E 025°20'0 0.0
2017-Aug-13 18:08N 37°25' E 025°20'0 0.0
2017-Aug-13 17:56N 37°25' E 025°20'0 0.0
2017-Aug-13 17:29N 37°25' E 025°20'0 0.0
2017-Aug-13 16:23N 37°25' E 025°20'0 0.0
2017-Aug-13 15:56N 37°25' E 025°20'0 0.2
2017-Aug-13 15:29N 37°24' E 025°20'0 0.5
2017-Aug-13 14:59N 37°25' E 025°20'3 5.8
2017-Aug-13 14:30N 37°23' E 025°18'2 3.9
2017-Aug-13 13:58N 37°24' E 025°16'0 0.1
2017-Aug-13 13:28N 37°24' E 025°16'0 0.0
2017-Aug-13 12:58N 37°24' E 025°16'0 0.0
2017-Aug-13 12:22N 37°24' E 025°16'0 0.0
2017-Aug-13 11:58N 37°24' E 025°16'0 0.0
2017-Aug-13 11:28N 37°24' E 025°16'0 0.0
2017-Aug-13 10:58N 37°24' E 025°16'0 0.0
2017-Aug-13 10:22N 37°24' E 025°16'0 0.0
2017-Aug-13 09:58N 37°24' E 025°16'0 0.0
2017-Aug-13 09:22N 37°24' E 025°16'0 0.0
2017-Aug-13 08:58N 37°24' E 025°16'0 0.0
2017-Aug-13 08:25N 37°24' E 025°16'0 0.0
2017-Aug-13 07:58N 37°24' E 025°16'0 0.0
2017-Aug-13 07:25N 37°24' E 025°16'0 0.0
2017-Aug-13 06:55N 37°24' E 025°16'0 0.1
2017-Aug-13 05:43N 37°24' E 025°16'2 6.7
2017-Aug-13 05:28N 37°22' E 025°16'3 7.6
2017-Aug-13 05:00N 37°24' E 025°20'1 0.1
2017-Aug-12 20:27N 37°25' E 025°20'0 0.0
2017-Aug-12 19:57N 37°25' E 025°20'0 0.0
2017-Aug-12 19:24N 37°25' E 025°20'0 0.0
2017-Aug-12 18:57N 37°25' E 025°20'0 0.0
2017-Aug-12 18:30N 37°25' E 025°20'0 0.0
2017-Aug-12 17:48N 37°25' E 025°20'0 0.0
2017-Aug-12 17:24N 37°25' E 025°20'0 0.0
2017-Aug-12 17:00N 37°25' E 025°20'0 0.0
2017-Aug-12 16:30N 37°25' E 025°20'0 0.0
2017-Aug-12 16:00N 37°25' E 025°20'0 0.0
2017-Aug-12 15:30N 37°25' E 025°20'0 0.0
2017-Aug-12 15:00N 37°25' E 025°20'0 0.1
2017-Aug-12 14:30N 37°25' E 025°20'0 0.2
2017-Aug-12 13:58N 37°25' E 025°20'0 0.0
2017-Aug-12 13:28N 37°25' E 025°20'0 0.0
2017-Aug-12 12:55N 37°25' E 025°20'0 0.0
2017-Aug-12 12:28N 37°25' E 025°20'0 0.0
2017-Aug-12 11:58N 37°25' E 025°20'0 0.0
2017-Aug-12 11:28N 37°25' E 025°20'0 0.0
2017-Aug-12 10:58N 37°25' E 025°20'0 0.0
2017-Aug-12 10:28N 37°25' E 025°20'0 0.0
2017-Aug-12 09:58N 37°25' E 025°20'0 0.0
2017-Aug-12 09:25N 37°25' E 025°20'0 0.0
2017-Aug-12 08:58N 37°25' E 025°20'0 0.0
2017-Aug-12 08:11N 37°25' E 025°20'0 0.0
2017-Aug-12 07:56N 37°25' E 025°20'0 0.0
2017-Aug-12 07:27N 37°25' E 025°20'0 0.5
2017-Aug-12 07:00N 37°25' E 025°20'1 1.4
2017-Aug-12 06:28N 37°24' E 025°21'0 0.1
2017-Aug-12 05:59N 37°24' E 025°21'3 7.0
2017-Aug-12 05:29N 37°25' E 025°26'4 8.8
2017-Aug-12 05:00N 37°28' E 025°30'19 7.8
2017-Aug-12 02:37N 37°27' E 025°53'  

Dump ship's entire track history